Time;durP1;ratioP1;P1;durP2;ratioP2;P2;SDS_P1;SDS_P2;PMS_P1;PMS_P2;Temp;Humidity;BMP_temperature;BMP_pressure;BME280_temperature;BME280_humidity;BME280_pressure;Samples;Min_cycle;Max_cycle;Signal;HPM_P1;HPM_P2
2023/05/09 00:01:30;;;;;;;2.20;2.10;;;;;;;17.45;58.34;94904.56;5130282;27;20188;-44
2023/05/09 00:03:57;;;;;;;2.50;2.30;;;;;;;17.44;58.25;94910.69;5130597;27;20188;-44
2023/05/09 00:06:24;;;;;;;2.57;2.37;;;;;;;17.32;58.12;94889.66;5132252;27;20199;-46
2023/05/09 00:08:51;;;;;;;2.73;2.47;;;;;;;17.41;58.22;94911.88;5132688;27;20204;-45
2023/05/09 00:11:18;;;;;;;2.00;1.90;;;;;;;17.35;58.44;94894.44;5132490;27;20680;-45
2023/05/09 00:13:46;;;;;;;2.37;2.17;;;;;;;17.42;58.31;94904.91;5132153;27;20620;-47
2023/05/09 00:16:14;;;;;;;1.97;1.87;;;;;;;17.40;58.16;94906.84;5111146;28;20246;-47
2023/05/09 00:18:42;;;;;;;2.00;1.90;;;;;;;17.40;58.45;94902.50;5120229;27;20204;-46
2023/05/09 00:21:09;;;;;;;2.53;2.27;;;;;;;17.38;58.51;94901.06;5132068;27;20277;-46
2023/05/09 00:23:36;;;;;;;2.43;2.30;;;;;;;17.41;58.33;94904.13;5132263;27;20188;-44
2023/05/09 00:26:03;;;;;;;2.30;2.17;;;;;;;17.43;58.30;94898.75;5132134;27;20188;-45
2023/05/09 00:28:31;;;;;;;2.47;2.27;;;;;;;17.42;58.38;94897.16;5132146;27;20208;-45
2023/05/09 00:30:59;;;;;;;1.80;1.70;;;;;;;17.43;58.16;94896.16;5131742;27;20660;-45
2023/05/09 00:33:26;;;;;;;2.13;2.00;;;;;;;17.43;58.23;94893.59;5120286;27;20204;-45
2023/05/09 00:35:53;;;;;;;2.10;2.00;;;;;;;17.42;58.21;94894.56;5111253;28;20193;-45
2023/05/09 00:38:20;;;;;;;2.47;2.27;;;;;;;17.42;58.47;94894.56;5113598;28;20212;-45
2023/05/09 00:40:47;;;;;;;2.50;2.10;;;;;;;17.40;58.35;94888.75;5111739;28;20562;-46
2023/05/09 00:43:13;;;;;;;2.47;2.33;;;;;;;17.39;58.43;94887.16;5112886;27;20258;-45
2023/05/09 00:45:40;;;;;;;2.70;2.50;;;;;;;17.38;58.49;94888.13;5111407;28;20829;-44
2023/05/09 00:48:09;;;;;;;2.50;2.30;;;;;;;17.37;58.69;94894.28;5111501;28;20196;-43
2023/05/09 00:50:36;;;;;;;2.03;1.93;;;;;;;17.32;58.65;94888.84;5111116;28;20633;-48
2023/05/09 00:53:04;;;;;;;2.43;2.10;;;;;;;17.33;58.63;94888.66;5111360;27;20183;-45
2023/05/09 00:55:31;;;;;;;2.50;1.87;;;;;;;17.31;58.48;94888.03;5111371;28;20593;-42
2023/05/09 00:57:58;;;;;;;2.20;2.10;;;;;;;17.28;58.67;94881.44;5110795;27;20220;-44
2023/05/09 01:00:25;;;;;;;2.17;2.03;;;;;;;17.20;58.72;94871.16;5110775;28;20197;-44
2023/05/09 01:02:55;;;;;;;2.33;2.20;;;;;;;17.30;58.74;94881.25;5110984;28;20254;-44
2023/05/09 01:05:29;;;;;;;2.17;2.07;;;;;;;17.29;58.84;94883.03;5111032;28;20598;-44
2023/05/09 01:08:02;;;;;;;2.40;2.20;;;;;;;17.28;58.62;94890.97;5111166;28;20285;-44
2023/05/09 01:10:35;;;;;;;2.07;1.97;;;;;;;17.26;58.82;94880.78;5111183;28;20177;-45
2023/05/09 01:13:07;;;;;;;2.87;2.67;;;;;;;17.24;58.86;94874.19;5110680;28;20181;-45
2023/05/09 01:15:39;;;;;;;2.20;2.10;;;;;;;17.23;58.92;94882.94;5111255;28;20219;-46
2023/05/09 01:18:11;;;;;;;3.93;2.40;;;;;;;17.21;59.03;94884.88;5110351;27;20211;-45
2023/05/09 01:20:44;;;;;;;3.63;2.50;;;;;;;17.20;59.06;94885.88;5110669;28;20246;-46
2023/05/09 01:23:38;;;;;;;2.60;2.40;;;;;;;17.18;59.19;94877.47;5110349;28;20228;-44
2023/05/09 01:26:07;;;;;;;2.90;2.27;;;;;;;17.15;59.32;94881.22;5110434;28;20189;-45
2023/05/09 01:29:01;;;;;;;2.27;2.13;;;;;;;17.13;59.43;94879.78;5109803;28;20208;-46
2023/05/09 01:31:30;;;;;;;2.30;2.07;;;;;;;17.03;59.43;94864.50;5110008;28;20228;-45
2023/05/09 01:34:01;;;;;;;2.20;2.00;;;;;;;17.13;59.34;94882.34;5092402;28;20666;-46
2023/05/09 01:36:31;;;;;;;2.77;2.30;;;;;;;17.12;59.37;94886.72;5110316;28;20685;-46
2023/05/09 01:38:59;;;;;;;2.47;2.27;;;;;;;17.13;59.35;94884.94;5110436;28;20826;-45
2023/05/09 01:41:30;;;;;;;2.27;2.10;;;;;;;17.12;59.37;94886.72;5110316;28;20189;-44
2023/05/09 01:44:00;;;;;;;5.13;2.47;;;;;;;17.12;59.49;94881.56;5110457;28;20802;-45
2023/05/09 01:46:29;;;;;;;2.40;2.20;;;;;;;16.74;59.44;94835.00;5110354;28;20185;-44
2023/05/09 01:48:57;;;;;;;2.63;2.43;;;;;;;17.11;59.37;94889.50;5110551;28;20204;-44
2023/05/09 01:51:25;;;;;;;2.53;2.37;;;;;;;16.37;59.30;94784.06;5109901;28;20197;-46
2023/05/09 01:53:54;;;;;;;3.27;2.60;;;;;;;17.09;59.49;94894.81;5110550;28;20200;-45
2023/05/09 01:56:23;;;;;;;2.20;2.10;;;;;;;17.12;59.43;94898.84;5109954;28;20237;-45
2023/05/09 01:58:51;;;;;;;2.30;2.00;;;;;;;17.11;59.62;94905.78;5113348;28;20721;-45
2023/05/09 02:01:19;;;;;;;3.10;2.47;;;;;;;17.11;59.49;94898.03;5113207;28;20185;-42
2023/05/09 02:03:51;;;;;;;2.53;2.33;;;;;;;17.11;59.65;94897.25;5112020;28;20193;-45
2023/05/09 02:06:20;;;;;;;2.00;1.90;;;;;;;17.11;59.66;94900.63;5110055;28;20591;-46
2023/05/09 02:08:48;;;;;;;2.30;2.20;;;;;;;17.06;59.60;94887.44;5110032;28;20253;-44
2023/05/09 02:11:15;;;;;;;2.27;2.13;;;;;;;17.08;59.91;94897.56;5109877;28;20192;-44
2023/05/09 02:13:41;;;;;;;2.50;2.30;;;;;;;16.98;59.77;94884.91;5110171;28;20914;-52
2023/05/09 02:16:09;;;;;;;2.57;2.40;;;;;;;17.06;59.61;94897.75;5109723;28;20638;-45
2023/05/09 02:18:37;;;;;;;2.90;2.17;;;;;;;17.04;59.91;94886.78;5110315;28;20269;-48
2023/05/09 02:21:06;;;;;;;2.50;2.30;;;;;;;17.04;60.04;94892.75;5111472;28;20181;-47
2023/05/09 02:23:33;;;;;;;2.37;2.17;;;;;;;17.03;60.01;94885.97;5110116;28;20516;-44
2023/05/09 02:26:00;;;;;;;3.00;2.70;;;;;;;17.03;60.03;94890.34;5109776;28;20712;-45
2023/05/09 02:28:28;;;;;;;3.00;2.30;;;;;;;17.02;60.03;94888.75;5109604;28;20570;-44
2023/05/09 02:30:57;;;;;;;2.93;2.53;;;;;;;16.97;59.99;94886.69;5129928;28;20192;-45
2023/05/09 02:33:25;;;;;;;2.57;2.37;;;;;;;17.00;60.23;94891.47;5130138;28;20219;-44
2023/05/09 02:35:54;;;;;;;2.77;2.57;;;;;;;17.00;60.12;94888.09;5130316;28;20217;-45
2023/05/09 02:38:23;;;;;;;2.37;2.27;;;;;;;16.99;59.96;94895.03;5130060;27;20216;-46
2023/05/09 02:40:50;;;;;;;2.70;2.50;;;;;;;16.98;60.07;94893.44;5135088;27;20697;-46
2023/05/09 02:43:17;;;;;;;2.43;2.30;;;;;;;16.98;60.19;94884.91;5134404;27;20211;-43
2023/05/09 02:45:44;;;;;;;2.87;2.67;;;;;;;16.98;60.14;94885.69;5134472;27;20549;-44
2023/05/09 02:48:11;;;;;;;2.73;2.50;;;;;;;16.98;60.13;94885.69;5134663;27;20192;-44
2023/05/09 02:50:38;;;;;;;2.80;2.60;;;;;;;16.98;59.95;94888.28;5135038;27;20694;-44
2023/05/09 02:53:05;;;;;;;2.80;2.60;;;;;;;16.86;60.09;94874.16;5116423;27;20199;-48
2023/05/09 02:55:34;;;;;;;2.67;2.47;;;;;;;16.95;60.22;94888.63;5134572;27;20196;-44
2023/05/09 02:58:01;;;;;;;3.10;2.60;;;;;;;16.97;60.00;94888.47;5115645;27;20206;-45
2023/05/09 03:00:28;;;;;;;2.87;2.67;;;;;;;16.97;60.11;94891.03;5134503;27;20256;-44
2023/05/09 03:02:56;;;;;;;2.63;2.43;;;;;;;16.93;60.13;94893.16;5133594;27;20308;-43
2023/05/09 03:05:23;;;;;;;2.83;2.60;;;;;;;16.96;60.01;94889.41;5133946;27;20185;-46
2023/05/09 03:07:50;;;;;;;2.53;2.33;;;;;;;16.95;60.29;94893.78;5115251;27;20192;-45
2023/05/09 03:10:17;;;;;;;3.03;2.47;;;;;;;16.96;60.31;94902.34;5133926;27;20192;-46
2023/05/09 03:12:46;;;;;;;2.27;2.17;;;;;;;16.95;60.16;94895.56;5133713;27;20273;-44
2023/05/09 03:15:13;;;;;;;3.33;2.50;;;;;;;16.95;60.27;94900.72;5133922;27;20283;-45
2023/05/09 03:17:40;;;;;;;2.47;2.27;;;;;;;16.88;60.26;94898.03;5134130;27;20189;-46
2023/05/09 03:20:09;;;;;;;3.10;2.77;;;;;;;16.92;60.35;94903.66;5133242;27;20223;-43
2023/05/09 03:22:36;;;;;;;3.10;2.87;;;;;;;16.93;60.45;94910.44;5133750;27;20253;-45
2023/05/09 03:25:03;;;;;;;2.70;2.50;;;;;;;16.94;60.61;94917.22;5133527;27;20220;-47
2023/05/09 03:27:29;;;;;;;3.50;3.13;;;;;;;16.95;60.54;94932.53;5133900;27;20227;-45
2023/05/09 03:29:58;;;;;;;2.90;2.60;;;;;;;16.96;60.68;94933.34;5133562;27;20184;-47
2023/05/09 03:32:25;;;;;;;3.20;2.90;;;;;;;16.96;60.56;94923.00;5134320;27;20603;-46
2023/05/09 03:34:53;;;;;;;2.77;2.57;;;;;;;16.96;60.58;94933.34;5133734;27;20223;-47
2023/05/09 03:37:20;;;;;;;2.97;2.70;;;;;;;16.97;60.70;94938.34;5133759;27;20223;-44
2023/05/09 03:39:47;;;;;;;2.73;2.53;;;;;;;16.98;60.78;94934.00;5133130;27;20212;-44
2023/05/09 03:42:14;;;;;;;2.90;2.70;;;;;;;16.47;60.67;94850.97;5133196;27;20188;-45
2023/05/09 03:44:41;;;;;;;7.30;3.13;;;;;;;17.00;61.10;94934.59;5133604;27;20632;-46
2023/05/09 03:47:09;;;;;;;3.37;2.97;;;;;;;16.97;60.96;94932.38;5133137;27;20226;-48
2023/05/09 03:49:36;;;;;;;4.70;2.70;;;;;;;16.94;60.92;94925.78;5133074;27;20199;-45
2023/05/09 03:52:03;;;;;;;3.03;2.73;;;;;;;16.99;61.09;94933.81;5131913;27;20192;-43
2023/05/09 03:54:30;;;;;;;2.70;2.50;;;;;;;17.01;61.01;94946.53;5114911;27;20189;-46
2023/05/09 03:56:57;;;;;;;3.13;2.60;;;;;;;17.03;61.20;94942.03;5132791;27;20641;-46
2023/05/09 03:59:24;;;;;;;2.93;2.47;;;;;;;17.04;61.20;94949.59;5133309;27;20224;-45
2023/05/09 04:01:51;;;;;;;3.27;3.00;;;;;;;17.07;61.26;94951.03;5132863;27;20201;-45
2023/05/09 04:04:20;;;;;;;2.90;2.70;;;;;;;17.09;61.07;94948.28;5131773;27;20683;-46
2023/05/09 04:06:46;;;;;;;3.60;2.90;;;;;;;17.12;61.34;94953.13;5112032;28;20193;-47
2023/05/09 04:09:14;;;;;;;3.00;2.80;;;;;;;17.14;61.27;94945.97;5112384;28;20193;-44
2023/05/09 04:11:41;;;;;;;3.40;3.10;;;;;;;17.15;61.57;94951.00;5111857;28;20641;-43
2023/05/09 04:14:08;;;;;;;3.43;3.13;;;;;;;17.19;61.22;94947.09;5112178;28;20733;-43
2023/05/09 04:16:35;;;;;;;3.67;2.87;;;;;;;17.17;61.49;94943.88;5093654;28;20220;-45
2023/05/09 04:19:02;;;;;;;2.90;2.70;;;;;;;17.21;61.34;94950.28;5124484;27;20228;-44
2023/05/09 04:21:30;;;;;;;2.90;2.70;;;;;;;17.13;61.55;94926.28;5130795;27;20184;-45
2023/05/09 04:23:57;;;;;;;2.93;2.73;;;;;;;17.26;61.41;94940.25;5131900;27;20752;-44
2023/05/09 04:26:25;;;;;;;5.93;2.60;;;;;;;17.24;61.28;94931.88;5132763;27;20203;-45
2023/05/09 04:28:54;;;;;;;3.23;2.93;;;;;;;17.28;61.17;94932.34;5131655;27;20215;-45
2023/05/09 04:31:21;;;;;;;2.83;2.60;;;;;;;17.43;61.07;94947.88;5131152;27;20181;-45
2023/05/09 04:33:48;;;;;;;3.63;3.13;;;;;;;17.48;60.77;94941.19;5131912;27;20235;-47
2023/05/09 04:36:15;;;;;;;2.93;2.73;;;;;;;17.58;60.72;94950.53;5132263;27;20223;-47
2023/05/09 04:38:44;;;;;;;2.90;2.60;;;;;;;17.68;60.55;94948.50;5113028;27;20188;-44
2023/05/09 04:41:10;;;;;;;3.00;2.80;;;;;;;17.76;60.47;94944.09;5132099;27;20229;-46
2023/05/09 04:43:37;;;;;;;3.60;3.20;;;;;;;17.88;60.20;94949.66;5133968;27;20203;-46
2023/05/09 04:46:04;;;;;;;2.93;2.63;;;;;;;17.97;59.99;94952.97;5133129;27;20215;-46
2023/05/09 04:48:32;;;;;;;4.17;3.10;;;;;;;18.03;59.91;94937.50;5131416;27;20645;-44
2023/05/09 04:50:59;;;;;;;3.40;2.87;;;;;;;17.97;59.84;94930.47;5132269;27;20382;-46
2023/05/09 04:53:27;;;;;;;3.33;3.03;;;;;;;18.02;59.54;94922.97;5131977;27;20192;-48
2023/05/09 04:55:55;;;;;;;3.20;2.90;;;;;;;18.33;59.31;94944.50;5132311;27;20208;-47
2023/05/09 04:58:24;;;;;;;4.33;3.20;;;;;;;18.27;59.09;94920.94;5131869;27;20191;-45
2023/05/09 05:00:52;;;;;;;2.83;2.63;;;;;;;18.41;58.85;94924.47;5132077;27;20212;-46
2023/05/09 05:03:20;;;;;;;3.33;2.93;;;;;;;18.61;58.92;94944.63;5131059;27;20224;-47
2023/05/09 05:05:46;;;;;;;3.13;2.83;;;;;;;18.69;58.76;94949.72;5131203;27;20257;-46
2023/05/09 05:08:14;;;;;;;2.83;2.63;;;;;;;18.75;58.72;94944.66;5113270;27;20194;-45
2023/05/09 05:10:41;;;;;;;3.93;3.00;;;;;;;18.88;58.58;94951.78;5112979;27;20200;-45
2023/05/09 05:13:09;;;;;;;3.77;2.60;;;;;;;18.95;58.50;94951.84;5131664;27;20189;-45
2023/05/09 05:15:37;;;;;;;6.27;3.33;;;;;;;19.03;58.24;94942.16;5112968;27;20715;-44
2023/05/09 05:18:04;;;;;;;2.97;2.77;;;;;;;19.12;58.22;94949.81;5131649;27;20285;-45
2023/05/09 05:20:30;;;;;;;5.50;2.70;;;;;;;19.25;64.45;94948.16;5131312;27;20230;-47
2023/05/09 05:22:57;;;;;;;8.93;2.40;;;;;;;19.46;72.55;94936.97;5131354;27;20216;-43
2023/05/09 05:25:24;;;;;;;3.80;2.63;;;;;;;19.76;73.73;94945.44;5131343;27;20795;-47
2023/05/09 05:27:51;;;;;;;12.43;4.13;;;;;;;19.99;73.39;94945.22;5131641;27;20539;-44
2023/05/09 05:30:20;;;;;;;7.83;4.17;;;;;;;20.23;74.05;94945.78;5131204;27;20187;-46
2023/05/09 05:32:47;;;;;;;5.30;3.07;;;;;;;20.46;73.21;94953.28;5131266;27;20287;-45
2023/05/09 05:35:14;;;;;;;7.00;3.30;;;;;;;20.71;71.94;94948.44;5131219;27;20564;-44
2023/05/09 05:37:41;;;;;;;9.07;2.70;;;;;;;21.02;70.58;94951.34;5131070;27;20636;-45
2023/05/09 05:40:09;;;;;;;3.53;2.88;;;;;;;21.33;69.33;94951.84;5130994;27;20220;-47
2023/05/09 05:42:36;;;;;;;4.25;2.83;;;;;;;21.62;68.38;94958.47;5131038;27;20176;-45
2023/05/09 05:45:04;;;;;;;8.23;2.50;;;;;;;21.78;67.03;94945.88;5131735;27;20185;-46
2023/05/09 05:47:33;;;;;;;2.63;2.42;;;;;;;22.05;66.11;94953.66;5122400;27;20196;-44
2023/05/09 05:50:01;;;;;;;2.30;2.10;;;;;;;22.28;65.29;94948.88;5127851;27;20192;-46
2023/05/09 05:52:28;;;;;;;5.00;2.45;;;;;;;22.70;63.71;94959.75;5129013;27;20199;-46
2023/05/09 05:54:55;;;;;;;4.55;1.90;;;;;;;23.10;61.17;94943.97;5130473;27;20673;-43
2023/05/09 05:57:22;;;;;;;5.82;2.25;;;;;;;23.50;59.21;94934.09;5129796;27;20641;-47
2023/05/09 05:59:49;;;;;;;4.45;2.13;;;;;;;23.95;58.33;94962.69;5130428;27;20719;-44
2023/05/09 06:02:16;;;;;;;3.03;1.73;;;;;;;24.12;57.47;94960.34;5129875;27;20200;-46
2023/05/09 06:04:44;;;;;;;2.45;2.17;;;;;;;24.17;56.39;94949.22;5130147;27;20211;-46
2023/05/09 06:07:12;;;;;;;2.45;1.98;;;;;;;24.29;56.09;94961.38;5130011;27;20292;-45
2023/05/09 06:09:39;;;;;;;2.67;2.00;;;;;;;24.35;55.61;94964.13;5129666;27;20188;-44
2023/05/09 06:12:06;;;;;;;4.57;2.15;;;;;;;24.30;55.47;94954.31;5129235;27;20192;-44
2023/05/09 06:14:33;;;;;;;4.57;2.22;;;;;;;24.22;55.41;94960.66;5130415;27;20256;-45
2023/05/09 06:17:00;;;;;;;4.80;2.20;;;;;;;24.17;56.04;94954.47;5133573;27;20202;-46
2023/05/09 06:19:27;;;;;;;5.20;2.13;;;;;;;24.13;56.00;94958.50;5131998;27;20715;-46
2023/05/09 06:21:58;;;;;;;2.10;1.90;;;;;;;24.07;56.19;94951.53;5129743;27;20196;-46
2023/05/09 06:24:24;;;;;;;2.50;1.92;;;;;;;23.99;56.49;94956.03;5129588;27;20311;-41
2023/05/09 06:26:51;;;;;;;2.30;2.15;;;;;;;23.87;56.68;94949.09;5130084;27;20188;-45
2023/05/09 06:29:18;;;;;;;2.55;2.13;;;;;;;23.82;56.87;94962.00;5129639;28;20188;-47
2023/05/09 06:31:45;;;;;;;5.68;1.90;;;;;;;23.69;56.86;94952.44;5126811;28;20204;-44
2023/05/09 06:34:11;;;;;;;2.42;2.17;;;;;;;23.57;57.22;94954.91;5129434;28;20198;-43
2023/05/09 06:36:38;;;;;;;2.42;2.00;;;;;;;23.52;57.37;94963.38;5129613;28;20614;-43
2023/05/09 06:39:06;;;;;;;2.17;1.90;;;;;;;23.47;57.38;94957.19;5129166;28;20191;-45
2023/05/09 06:41:36;;;;;;;2.75;1.90;;;;;;;23.40;57.47;94964.25;5129738;28;20565;-46
2023/05/09 06:44:02;;;;;;;2.22;2.13;;;;;;;23.31;57.36;94968.94;5126064;28;20245;-45
2023/05/09 06:46:29;;;;;;;5.55;2.30;;;;;;;23.22;57.61;94962.38;5129477;28;20196;-45
2023/05/09 06:48:56;;;;;;;3.55;2.22;;;;;;;23.11;57.43;94947.38;5129613;28;20181;-45
2023/05/09 06:51:23;;;;;;;3.67;2.10;;;;;;;23.11;57.72;94966.44;5128675;28;20188;-44
2023/05/09 06:53:50;;;;;;;3.60;2.17;;;;;;;23.08;57.71;94969.47;5125439;28;20192;-42
2023/05/09 06:56:21;;;;;;;2.35;2.08;;;;;;;23.04;57.97;94957.84;5130542;28;20516;-46
2023/05/09 06:58:48;;;;;;;2.20;1.90;;;;;;;23.04;58.11;94960.44;5128210;28;20290;-42
2023/05/09 07:01:15;;;;;;;2.08;1.90;;;;;;;23.04;58.61;94952.63;5129534;28;20223;-43
2023/05/09 07:03:42;;;;;;;2.45;2.10;;;;;;;23.04;58.76;94956.03;5129736;28;20192;-45
2023/05/09 07:06:09;;;;;;;3.97;2.15;;;;;;;23.08;58.79;94960.84;5128877;28;20197;-43
2023/05/09 07:08:36;;;;;;;3.17;2.17;;;;;;;23.08;58.85;94959.03;5128930;28;20191;-42
2023/05/09 07:11:03;;;;;;;5.75;2.28;;;;;;;23.10;58.80;94957.03;5126711;28;20204;-46
2023/05/09 07:13:31;;;;;;;3.00;2.17;;;;;;;23.03;58.65;94938.00;5126904;28;20665;-43
2023/05/09 07:15:58;;;;;;;2.63;2.00;;;;;;;23.18;58.65;94953.34;5126472;28;20206;-43
2023/05/09 07:18:25;;;;;;;3.28;2.33;;;;;;;23.23;58.32;94956.16;5128780;28;20200;-43
2023/05/09 07:20:52;;;;;;;2.75;2.20;;;;;;;23.29;58.22;94960.53;5128778;28;20220;-45
2023/05/09 07:23:19;;;;;;;2.80;2.35;;;;;;;23.35;58.10;94961.50;5129506;28;20287;-44
2023/05/09 07:25:45;;;;;;;2.00;1.90;;;;;;;23.24;58.09;94940.28;5126415;27;20232;-44
2023/05/09 07:28:12;;;;;;;5.03;2.00;;;;;;;23.45;57.73;94959.22;5133320;27;20183;-45
2023/05/09 07:30:42;;;;;;;2.40;2.15;;;;;;;23.47;57.61;94965.03;5130043;27;20192;-46
2023/05/09 07:33:09;;;;;;;3.20;1.80;;;;;;;23.47;57.60;94958.00;5132636;27;20196;-43
2023/05/09 07:35:36;;;;;;;2.83;2.00;;;;;;;23.48;57.15;94961.41;5132177;27;20200;-44
2023/05/09 07:38:05;;;;;;;2.58;1.85;;;;;;;23.47;57.19;94965.03;5132184;27;20196;-42
2023/05/09 07:40:32;;;;;;;1.92;1.83;;;;;;;23.43;57.19;94967.25;5132547;27;20212;-45
2023/05/09 07:42:59;;;;;;;3.15;2.00;;;;;;;23.46;57.08;94966.03;5131779;27;20188;-45
2023/05/09 07:45:26;;;;;;;2.65;2.13;;;;;;;23.39;56.94;94960.84;5132834;27;20173;-44
2023/05/09 07:47:54;;;;;;;2.92;1.63;;;;;;;23.44;57.13;94966.25;5132277;27;20267;-42
2023/05/09 07:50:22;;;;;;;2.53;2.08;;;;;;;23.42;57.05;94960.44;5130677;27;20192;-45
2023/05/09 07:52:48;;;;;;;1.75;1.65;;;;;;;23.43;56.93;94963.84;5132505;27;20279;-44
2023/05/09 07:55:15;;;;;;;2.10;1.80;;;;;;;23.43;56.92;94964.66;5131857;27;20195;-43
2023/05/09 07:57:42;;;;;;;2.83;2.13;;;;;;;23.47;56.94;94963.22;5131794;27;20188;-41
2023/05/09 08:00:10;;;;;;;2.78;2.10;;;;;;;23.47;56.82;94960.59;5131466;27;20208;-44
2023/05/09 08:02:37;;;;;;;3.22;1.92;;;;;;;23.42;56.51;94955.22;5131013;27;20608;-44
2023/05/09 08:05:06;;;;;;;4.13;1.88;;;;;;;23.56;56.08;94950.69;5131851;27;20188;-44
2023/05/09 08:07:33;;;;;;;2.28;1.80;;;;;;;23.64;55.94;94950.44;5131859;27;20200;-42
2023/05/09 08:10:00;;;;;;;1.75;1.65;;;;;;;23.75;55.41;94954.22;5131896;27;20652;-45
2023/05/09 08:12:27;;;;;;;2.42;1.90;;;;;;;23.48;55.00;94898.75;5131554;27;20188;-44
2023/05/09 08:14:53;;;;;;;3.30;1.98;;;;;;;23.96;54.42;94966.91;5131549;27;20240;-45
2023/05/09 08:17:20;;;;;;;1.88;1.77;;;;;;;24.01;53.89;94959.22;5131482;27;20192;-45
2023/05/09 08:19:47;;;;;;;1.90;1.80;;;;;;;24.05;53.68;94946.53;5131447;27;20184;-46
2023/05/09 08:22:18;;;;;;;2.05;1.85;;;;;;;24.17;53.14;94964.91;5131566;27;20200;-43
2023/05/09 08:24:45;;;;;;;2.10;2.00;;;;;;;24.21;52.90;94960.84;5131243;27;20228;-47
2023/05/09 08:27:13;;;;;;;2.28;2.08;;;;;;;24.20;52.54;94940.97;5131653;27;20188;-47
2023/05/09 08:29:40;;;;;;;1.70;1.60;;;;;;;24.47;52.05;94952.78;5131102;27;20241;-45
2023/05/09 08:32:07;;;;;;;1.75;1.65;;;;;;;24.64;51.71;94957.44;5131063;27;20211;-47
2023/05/09 08:34:34;;;;;;;1.75;1.65;;;;;;;24.70;50.89;94944.28;5131460;27;20189;-45
2023/05/09 08:37:01;;;;;;;3.38;1.67;;;;;;;24.92;50.71;94951.69;5130842;27;20208;-48
2023/05/09 08:39:29;;;;;;;1.77;1.67;;;;;;;25.08;50.35;94955.47;5130958;27;20192;-46
2023/05/09 08:41:59;;;;;;;1.65;1.55;;;;;;;25.18;50.09;94955.81;5131169;27;20212;-44
2023/05/09 08:44:28;;;;;;;1.63;1.40;;;;;;;25.32;49.91;94972.13;5131117;27;20192;-46
2023/05/09 08:46:58;;;;;;;1.70;1.60;;;;;;;25.38;49.45;94955.50;5130701;27;20641;-46
2023/05/09 08:49:26;;;;;;;2.08;1.67;;;;;;;25.37;49.03;94952.09;5131401;27;20193;-46
2023/05/09 08:51:54;;;;;;;1.83;1.73;;;;;;;25.30;48.93;94942.72;5131578;27;20196;-44
2023/05/09 08:54:21;;;;;;;4.10;1.70;;;;;;;25.19;49.06;94950.34;5111909;27;20198;-47
2023/05/09 08:56:50;;;;;;;2.13;1.40;;;;;;;25.02;48.92;94944.88;5126419;27;20200;-46
2023/05/09 08:59:18;;;;;;;1.75;1.65;;;;;;;24.86;49.12;94958.56;5128115;27;20203;-45
2023/05/09 09:01:45;;;;;;;1.70;1.60;;;;;;;24.67;48.88;94943.91;5127865;27;20607;-44
2023/05/09 09:04:12;;;;;;;1.73;1.63;;;;;;;24.50;48.98;94941.88;5128002;27;20193;-44
2023/05/09 09:06:40;;;;;;;2.70;1.77;;;;;;;24.30;49.10;94954.31;5128128;27;20208;-46
2023/05/09 09:09:08;;;;;;;1.77;1.67;;;;;;;24.09;49.06;94950.28;5128069;27;20196;-46
2023/05/09 09:11:37;;;;;;;1.55;1.45;;;;;;;23.83;49.03;94940.88;5127882;27;20245;-47
2023/05/09 09:14:12;;;;;;;2.05;1.80;;;;;;;23.65;49.36;94948.66;5127006;27;20200;-43
2023/05/09 09:16:40;;;;;;;2.00;1.77;;;;;;;23.47;49.48;94954.59;5127636;27;20211;-44
2023/05/09 09:19:11;;;;;;;1.60;1.50;;;;;;;23.16;49.48;94917.03;5127231;27;20268;-43
2023/05/09 09:21:41;;;;;;;1.52;1.42;;;;;;;23.24;49.63;94949.91;5126551;27;20226;-46
2023/05/09 09:24:08;;;;;;;1.70;1.60;;;;;;;23.13;49.65;94940.94;5129251;27;20292;-43
2023/05/09 09:26:35;;;;;;;1.70;1.60;;;;;;;23.13;49.70;94948.75;5130068;27;20184;-46
2023/05/09 09:29:02;;;;;;;3.47;1.60;;;;;;;23.06;49.55;94950.63;5130594;27;20233;-46
2023/05/09 09:31:33;;;;;;;1.60;1.50;;;;;;;22.97;49.54;94949.25;5130152;27;20207;-46
2023/05/09 09:34:02;;;;;;;3.28;1.40;;;;;;;22.65;49.50;94923.06;5130616;27;20184;-47
2023/05/09 09:36:31;;;;;;;1.52;1.42;;;;;;;22.68;49.76;94956.56;5129774;27;20189;-46
2023/05/09 09:39:00;;;;;;;1.80;1.35;;;;;;;22.56;49.95;94954.81;5129651;27;20199;-46
2023/05/09 09:41:31;;;;;;;2.25;1.50;;;;;;;22.44;49.90;94958.03;5129695;27;20212;-45
2023/05/09 09:43:58;;;;;;;2.97;1.80;;;;;;;22.34;50.13;94951.66;5130326;27;20185;-45
2023/05/09 09:46:25;;;;;;;1.70;1.60;;;;;;;22.23;50.12;94946.03;5129741;27;20184;-45
2023/05/09 09:48:56;;;;;;;1.48;1.23;;;;;;;22.29;49.91;94949.66;5129268;27;20180;-47
2023/05/09 09:51:27;;;;;;;1.65;1.55;;;;;;;22.36;49.93;94952.22;5129972;27;20556;-46
2023/05/09 09:53:54;;;;;;;1.75;1.60;;;;;;;22.44;49.69;94954.63;5130193;27;20311;-44
2023/05/09 09:56:21;;;;;;;1.38;1.30;;;;;;;22.49;49.61;94960.81;5129792;27;20346;-45
2023/05/09 09:58:48;;;;;;;1.55;1.40;;;;;;;22.54;49.79;94958.41;5130075;27;20189;-46
2023/05/09 10:01:15;;;;;;;1.60;1.50;;;;;;;22.62;49.39;94961.78;5130042;27;20246;-45
2023/05/09 10:03:43;;;;;;;2.30;1.80;;;;;;;22.73;49.28;94954.13;5130805;27;20192;-46
2023/05/09 10:06:12;;;;;;;1.70;1.60;;;;;;;22.86;49.03;94957.69;5130710;27;20200;-51
2023/05/09 10:08:40;;;;;;;1.50;1.40;;;;;;;22.93;48.85;94946.28;5130017;27;20211;-46
2023/05/09 10:11:07;;;;;;;1.75;1.65;;;;;;;23.03;48.85;94954.44;5130078;27;20191;-46
2023/05/09 10:13:36;;;;;;;1.52;1.42;;;;;;;23.07;48.57;94954.81;5129836;27;20647;-46
2023/05/09 10:16:04;;;;;;;1.23;1.23;;;;;;;23.16;48.30;94948.34;5128474;27;20196;-46
2023/05/09 10:18:32;;;;;;;1.77;1.38;;;;;;;23.22;48.50;94946.69;5129373;27;20203;-45
2023/05/09 10:21:00;;;;;;;1.42;1.40;;;;;;;23.34;48.14;94949.44;5129565;27;20239;-47
2023/05/09 10:23:30;;;;;;;3.20;1.50;;;;;;;23.36;47.85;94945.63;5129326;27;20192;-44
2023/05/09 10:26:05;;;;;;;1.50;1.40;;;;;;;23.45;48.17;94946.97;5129419;27;20235;-45
2023/05/09 10:28:35;;;;;;;1.52;1.42;;;;;;;23.43;47.87;94938.53;5129704;27;20192;-45
2023/05/09 10:31:09;;;;;;;1.23;1.23;;;;;;;23.36;47.90;94943.03;5129611;28;20191;-45
2023/05/09 10:33:43;;;;;;;1.30;1.30;;;;;;;23.34;47.96;94942.41;5129254;28;20704;-46
2023/05/09 10:36:11;;;;;;;1.50;1.40;;;;;;;23.39;47.96;94939.97;5129206;28;20643;-45
2023/05/09 10:38:40;;;;;;;3.70;1.35;;;;;;;23.45;47.58;94933.13;5126594;28;20196;-47
2023/05/09 10:41:07;;;;;;;1.60;1.50;;;;;;;23.58;47.41;94933.03;5129060;28;20212;-46
2023/05/09 10:43:35;;;;;;;1.70;1.60;;;;;;;23.51;47.17;94914.78;5129377;28;20188;-45
2023/05/09 10:46:02;;;;;;;3.40;1.80;;;;;;;23.74;46.89;94929.91;5129176;28;20190;-45
2023/05/09 10:48:29;;;;;;;1.63;1.40;;;;;;;23.83;47.11;94930.44;5129184;28;20558;-46
2023/05/09 10:50:57;;;;;;;1.70;1.60;;;;;;;23.93;46.67;94929.97;5129451;28;20584;-47
2023/05/09 10:53:25;;;;;;;1.65;1.55;;;;;;;24.06;46.79;94935.06;5129382;28;20612;-45
2023/05/09 10:55:55;;;;;;;1.50;1.40;;;;;;;24.20;46.57;94933.13;5129419;28;20188;-45
2023/05/09 10:58:25;;;;;;;1.90;1.60;;;;;;;24.33;46.30;94927.75;5128658;28;20214;-47
2023/05/09 11:00:54;;;;;;;1.75;1.65;;;;;;;24.52;46.00;94933.81;5131612;27;20216;-46
2023/05/09 11:03:22;;;;;;;1.70;1.60;;;;;;;24.66;45.97;94932.66;5132790;27;20196;-45
2023/05/09 11:05:52;;;;;;;1.50;1.40;;;;;;;24.84;45.53;94939.69;5133607;27;20212;-46
2023/05/09 11:08:20;;;;;;;1.65;1.55;;;;;;;24.98;45.48;94929.84;5132896;27;20192;-45
2023/05/09 11:10:48;;;;;;;1.70;1.60;;;;;;;25.11;45.01;94936.75;5133278;27;20196;-47
2023/05/09 11:13:20;;;;;;;2.03;1.63;;;;;;;25.03;44.77;94906.44;5131892;27;20558;-46
2023/05/09 11:16:05;;;;;;;1.95;1.85;;;;;;;25.30;44.64;94935.66;5133169;27;20265;-44
2023/05/09 11:18:33;;;;;;;1.80;1.70;;;;;;;25.39;44.57;94931.75;5133289;27;20192;-46
2023/05/09 11:21:06;;;;;;;4.05;1.80;;;;;;;25.49;44.64;94939.03;5133294;27;20229;-46
2023/05/09 11:23:33;;;;;;;1.90;1.80;;;;;;;25.58;44.13;94944.75;5130423;27;20227;-45
2023/05/09 11:26:05;;;;;;;1.60;1.50;;;;;;;25.62;44.29;94938.84;5132385;27;20239;-43
2023/05/09 11:28:35;;;;;;;1.75;1.65;;;;;;;25.65;44.22;94959.34;5132493;27;20177;-46
2023/05/09 11:31:12;;;;;;;4.65;2.08;;;;;;;25.69;44.09;94933.47;5132669;27;20212;-45
2023/05/09 11:33:40;;;;;;;1.80;1.70;;;;;;;25.73;43.87;94943.31;5129509;27;20192;-44
2023/05/09 11:36:18;;;;;;;1.98;1.88;;;;;;;25.80;43.92;94945.06;5132555;27;20188;-46
2023/05/09 11:38:46;;;;;;;2.03;1.92;;;;;;;25.82;43.45;94935.94;5130996;27;20620;-43